Time;durP1;ratioP1;P1;durP2;ratioP2;P2;SDS_P1;SDS_P2;PMS_P1;PMS_P2;Temp;Humidity;BMP_temperature;BMP_pressure;BME280_temperature;BME280_humidity;BME280_pressure;Samples;Min_cycle;Max_cycle;Signal;HPM_P1;HPM_P2
2022/09/03 00:00:15;;;;;;;6.72;6.03;;;;;;;;;;10083998;29;20445;-80
2022/09/03 00:05:23;;;;;;;7.03;5.40;;;;;;;;;;10095000;29;20417;-80
2022/09/03 00:10:31;;;;;;;8.45;5.70;;;;;;;;;;10088816;29;20792;-80
2022/09/03 00:15:34;;;;;;;5.93;5.28;;;;;;;;;;10089333;29;20494;-79
2022/09/03 00:20:41;;;;;;;6.15;5.55;;;;;;;;;;10095041;29;20497;-80
2022/09/03 00:25:49;;;;;;;6.37;5.33;;;;;;;;;;10096977;29;20503;-80
2022/09/03 00:31:00;;;;;;;7.60;5.63;;;;;;;;;;10098940;29;20417;-78
2022/09/03 00:36:12;;;;;;;6.20;5.70;;;;;;;;;;10097374;29;20716;-80
2022/09/03 00:41:30;;;;;;;7.07;5.05;;;;;;;;;;10094860;29;20454;-80
2022/09/03 00:46:39;;;;;;;5.60;4.88;;;;;;;;;;10097625;29;20413;-80
2022/09/03 00:51:46;;;;;;;5.38;3.92;;;;;;;;;;10104122;29;20417;-80
2022/09/03 00:56:58;;;;;;;4.75;4.10;;;;;;;;;;10092483;29;20843;-80
2022/09/03 01:02:08;;;;;;;4.93;3.60;;;;;;;;;;10116331;29;20435;-79
2022/09/03 01:07:17;;;;;;;5.20;4.23;;;;;;;;;;10104033;29;20442;-79
2022/09/03 01:12:32;;;;;;;6.82;3.90;;;;;;;;;;10114453;29;20421;-79
2022/09/03 01:17:49;;;;;;;4.57;3.60;;;;;;;;;;10112890;29;20433;-78
2022/09/03 01:23:14;;;;;;;5.30;4.03;;;;;;;;;;10112960;29;20496;-79
2022/09/03 01:28:32;;;;;;;4.38;3.97;;;;;;;;;;10102178;29;20539;-79
2022/09/03 01:33:40;;;;;;;4.93;4.00;;;;;;;;;;10112079;29;20420;-78
2022/09/03 01:38:48;;;;;;;4.65;4.25;;;;;;;;;;10113579;29;20441;-78
2022/09/03 01:43:58;;;;;;;4.53;4.07;;;;;;;;;;10116350;29;20420;-79
2022/09/03 01:49:05;;;;;;;7.38;4.25;;;;;;;;;;10117129;29;20445;-79
2022/09/03 01:54:38;;;;;;;5.20;4.10;;;;;;;;;;10120867;29;20421;-79
2022/09/03 01:59:47;;;;;;;3.97;3.58;;;;;;;;;;10103750;29;20861;-81
2022/09/03 02:04:59;;;;;;;4.70;3.67;;;;;;;;;;10118117;29;20428;-80
2022/09/03 02:10:02;;;;;;;4.30;3.30;;;;;;;;;;10122432;29;20488;-80
2022/09/03 02:15:11;;;;;;;6.83;3.80;;;;;;;;;;10110269;29;20420;-80
2022/09/03 02:20:19;;;;;;;4.10;3.70;;;;;;;;;;10117361;29;20448;-80
2022/09/03 02:25:23;;;;;;;3.95;3.55;;;;;;;;;;10117376;29;20429;-81
2022/09/03 02:30:26;;;;;;;4.03;3.35;;;;;;;;;;10120297;29;20773;-80
2022/09/03 02:35:28;;;;;;;4.20;3.17;;;;;;;;;;10121666;29;20512;-79
2022/09/03 02:40:30;;;;;;;5.53;3.50;;;;;;;;;;10119348;29;20437;-81
2022/09/03 02:45:36;;;;;;;4.03;3.63;;;;;;;;;;10120959;29;20593;-80
2022/09/03 02:50:41;;;;;;;5.15;3.20;;;;;;;;;;10120010;29;20830;-81
2022/09/03 02:55:42;;;;;;;4.85;3.83;;;;;;;;;;10119194;29;20448;-80
2022/09/03 03:00:48;;;;;;;4.40;3.90;;;;;;;;;;10108375;29;20433;-80
2022/09/03 03:05:51;;;;;;;5.43;4.15;;;;;;;;;;10120717;29;20487;-80
2022/09/03 03:10:55;;;;;;;5.30;4.22;;;;;;;;;;10107284;29;20419;-78
2022/09/03 03:16:00;;;;;;;5.03;3.88;;;;;;;;;;10107617;29;20413;-78
2022/09/03 03:21:05;;;;;;;5.57;4.27;;;;;;;;;;10107539;29;20429;-78
2022/09/03 03:26:09;;;;;;;4.65;4.25;;;;;;;;;;10119547;29;20913;-78
2022/09/03 03:31:15;;;;;;;4.32;3.92;;;;;;;;;;10118476;29;20413;-79
2022/09/03 03:36:16;;;;;;;4.65;4.15;;;;;;;;;;10118917;29;20791;-79
2022/09/03 03:41:21;;;;;;;6.05;4.03;;;;;;;;;;10117350;29;20910;-79
2022/09/03 03:46:25;;;;;;;4.07;3.67;;;;;;;;;;10116600;29;20421;-78
2022/09/03 03:51:29;;;;;;;4.53;3.80;;;;;;;;;;10115032;29;20492;-80
2022/09/03 03:56:31;;;;;;;4.38;3.97;;;;;;;;;;10117522;29;20409;-80
2022/09/03 04:01:34;;;;;;;4.03;3.70;;;;;;;;;;10113196;29;20515;-80
2022/09/03 04:06:36;;;;;;;3.95;3.65;;;;;;;;;;10086058;29;20415;-80
2022/09/03 04:11:38;;;;;;;4.30;3.40;;;;;;;;;;10099108;29;20963;-80
2022/09/03 04:16:42;;;;;;;3.87;3.50;;;;;;;;;;10088203;29;20784;-80
2022/09/03 04:21:43;;;;;;;4.82;3.40;;;;;;;;;;10096667;29;20435;-81
2022/09/03 04:26:46;;;;;;;4.95;3.58;;;;;;;;;;10105804;29;20417;-80
2022/09/03 04:37:04;;;;;;;3.65;3.35;;;;;;;;;;10111529;29;20413;-80
2022/09/03 04:42:06;;;;;;;4.22;3.38;;;;;;;;;;10104749;29;20444;-80
2022/09/03 04:47:10;;;;;;;3.70;3.28;;;;;;;;;;10085535;29;20421;-80
2022/09/03 04:52:11;;;;;;;4.13;3.30;;;;;;;;;;10080974;29;20432;-79
2022/09/03 04:57:13;;;;;;;4.63;3.10;;;;;;;;;;10095944;29;20501;-81
2022/09/03 05:02:16;;;;;;;3.60;3.30;;;;;;;;;;10103962;29;20433;-79
2022/09/03 05:07:19;;;;;;;4.65;3.22;;;;;;;;;;10115257;29;20495;-79
2022/09/03 05:12:22;;;;;;;4.22;3.58;;;;;;;;;;10114127;29;21036;-79
2022/09/03 05:17:25;;;;;;;5.60;3.25;;;;;;;;;;10117220;29;20512;-79
2022/09/03 05:22:27;;;;;;;5.07;3.53;;;;;;;;;;10118925;29;20416;-80
2022/09/03 05:27:30;;;;;;;4.03;3.63;;;;;;;;;;10118268;29;20761;-79
2022/09/03 05:32:34;;;;;;;4.10;3.70;;;;;;;;;;10121454;29;20412;-79
2022/09/03 05:37:36;;;;;;;4.60;3.92;;;;;;;;;;10111390;29;20419;-79
2022/09/03 05:42:38;;;;;;;4.55;3.63;;;;;;;;;;10120282;29;20500;-78
2022/09/03 05:47:41;;;;;;;3.50;3.20;;;;;;;;;;10109468;29;20516;-79
2022/09/03 05:52:43;;;;;;;4.25;3.67;;;;;;;;;;10120354;29;21172;-79
2022/09/03 05:57:45;;;;;;;4.80;3.50;;;;;;;;;;10119214;29;20488;-79
2022/09/03 06:02:52;;;;;;;4.38;3.20;;;;;;;;;;10118639;29;20517;-79
2022/09/03 06:07:54;;;;;;;4.03;2.85;;;;;;;;;;10110023;29;20455;-79
2022/09/03 06:12:57;;;;;;;5.05;3.15;;;;;;;;;;10114849;29;20774;-78
2022/09/03 06:18:01;;;;;;;4.90;2.80;;;;;;;;;;10116170;29;20855;-79
2022/09/03 06:23:03;;;;;;;3.47;2.80;;;;;;;;;;10113274;29;20432;-78
2022/09/03 06:28:07;;;;;;;4.47;3.00;;;;;;;;;;10111617;29;20417;-79
2022/09/03 06:33:10;;;;;;;3.75;2.80;;;;;;;;;;10106073;29;20409;-79
2022/09/03 06:38:12;;;;;;;3.33;2.70;;;;;;;;;;10097271;29;20854;-78
2022/09/03 06:43:14;;;;;;;4.13;2.75;;;;;;;;;;10106473;29;20961;-79
2022/09/03 06:48:17;;;;;;;2.72;2.28;;;;;;;;;;10117782;29;20480;-78
2022/09/03 06:53:19;;;;;;;5.10;2.58;;;;;;;;;;10087130;29;20809;-78
2022/09/03 06:58:21;;;;;;;2.78;2.33;;;;;;;;;;10101586;29;20436;-80
2022/09/03 07:03:25;;;;;;;3.30;2.40;;;;;;;;;;10110073;29;20415;-80
2022/09/03 07:08:26;;;;;;;2.83;2.30;;;;;;;;;;10117077;29;20836;-80
2022/09/03 07:13:28;;;;;;;2.80;2.33;;;;;;;;;;10115922;29;20405;-78
2022/09/03 07:18:32;;;;;;;3.70;2.13;;;;;;;;;;10104313;29;20524;-78
2022/09/03 07:23:35;;;;;;;2.80;2.05;;;;;;;;;;10115808;29;20520;-79
2022/09/03 07:28:38;;;;;;;3.03;2.23;;;;;;;;;;10113408;29;20592;-79
2022/09/03 07:33:42;;;;;;;4.30;2.13;;;;;;;;;;10118516;29;20419;-78
2022/09/03 07:38:45;;;;;;;3.47;2.35;;;;;;;;;;10116805;29;20429;-79
2022/09/03 07:43:47;;;;;;;3.63;2.00;;;;;;;;;;10116539;29;20489;-79
2022/09/03 07:48:51;;;;;;;4.60;2.10;;;;;;;;;;10116681;29;20417;-79
2022/09/03 07:53:56;;;;;;;3.58;2.10;;;;;;;;;;10116979;29;20413;-79
2022/09/03 07:58:58;;;;;;;3.37;2.00;;;;;;;;;;10115217;29;20460;-79
2022/09/03 08:04:03;;;;;;;4.10;2.00;;;;;;;;;;10115305;29;20419;-79
2022/09/03 08:09:07;;;;;;;2.80;2.20;;;;;;;;;;10113943;29;20943;-79
2022/09/03 08:14:10;;;;;;;3.25;2.10;;;;;;;;;;10112920;29;20931;-79
2022/09/03 08:19:14;;;;;;;2.40;2.17;;;;;;;;;;10111981;29;20436;-78
2022/09/03 08:24:17;;;;;;;4.07;2.28;;;;;;;;;;10112576;29;20508;-78
2022/09/03 08:29:20;;;;;;;3.15;2.28;;;;;;;;;;10111087;29;20485;-80
2022/09/03 08:34:23;;;;;;;2.60;1.92;;;;;;;;;;10116303;29;20420;-80
2022/09/03 08:39:25;;;;;;;2.10;1.90;;;;;;;;;;10114310;29;20831;-80
2022/09/03 08:44:30;;;;;;;3.47;1.90;;;;;;;;;;10102210;29;20420;-80
2022/09/03 08:49:40;;;;;;;3.53;2.03;;;;;;;;;;10117945;29;20449;-80
2022/09/03 08:54:43;;;;;;;2.90;2.05;;;;;;;;;;10120407;29;20500;-78
2022/09/03 08:59:45;;;;;;;2.63;2.15;;;;;;;;;;10120877;29;20532;-78
2022/09/03 09:05:01;;;;;;;3.10;2.03;;;;;;;;;;10119612;29;20496;-79
2022/09/03 09:10:10;;;;;;;2.43;1.90;;;;;;;;;;10118729;29;20472;-79
2022/09/03 09:15:17;;;;;;;2.63;2.00;;;;;;;;;;10118289;29;20407;-79
2022/09/03 09:20:28;;;;;;;2.40;2.20;;;;;;;;;;10117417;29;20472;-79
2022/09/03 09:25:31;;;;;;;3.65;2.00;;;;;;;;;;10117508;29;20448;-79
2022/09/03 09:30:33;;;;;;;2.25;2.05;;;;;;;;;;10118167;29;20416;-79
2022/09/03 09:35:40;;;;;;;3.45;2.42;;;;;;;;;;10121874;29;20417;-79
2022/09/03 09:40:43;;;;;;;2.13;2.00;;;;;;;;;;10121282;29;20797;-79
2022/09/03 09:45:48;;;;;;;2.80;2.17;;;;;;;;;;10120792;29;20516;-79
2022/09/03 09:51:04;;;;;;;2.40;2.00;;;;;;;;;;10119111;29;20417;-79
2022/09/03 09:56:06;;;;;;;4.17;2.13;;;;;;;;;;10119381;29;20822;-79
2022/09/03 10:01:12;;;;;;;2.65;2.08;;;;;;;;;;10118704;29;20524;-79
2022/09/03 10:11:38;;;;;;;2.77;1.90;;;;;;;;;;10116670;29;20394;-79
2022/09/03 10:16:47;;;;;;;4.45;2.10;;;;;;;;;;10115289;29;20428;-79
2022/09/03 10:21:55;;;;;;;2.20;2.00;;;;;;;;;;10105957;29;20434;-79
2022/09/03 10:26:58;;;;;;;3.78;2.10;;;;;;;;;;10114852;29;20415;-79
2022/09/03 10:32:11;;;;;;;3.33;2.40;;;;;;;;;;10111761;29;20430;-78
2022/09/03 10:37:25;;;;;;;3.97;2.50;;;;;;;;;;10101690;29;20427;-79
2022/09/03 10:42:38;;;;;;;3.78;2.58;;;;;;;;;;10118482;29;20440;-79
2022/09/03 10:48:06;;;;;;;4.18;2.50;;;;;;;;;;10118462;29;20442;-79
2022/09/03 10:53:19;;;;;;;3.13;2.40;;;;;;;;;;10119465;29;20500;-79
2022/09/03 10:58:45;;;;;;;3.47;2.22;;;;;;;;;;10119115;29;20501;-79
2022/09/03 11:03:50;;;;;;;4.18;2.40;;;;;;;;;;10117745;29;20414;-78
2022/09/03 11:08:59;;;;;;;2.38;1.88;;;;;;;;;;10117994;29;20418;-79
2022/09/03 11:14:08;;;;;;;4.47;2.15;;;;;;;;;;10117533;29;20413;-79
2022/09/03 11:19:14;;;;;;;2.22;1.70;;;;;;;;;;10116671;29;20729;-79
2022/09/03 11:24:22;;;;;;;1.93;1.83;;;;;;;;;;10116023;29;20895;-79
2022/09/03 11:29:35;;;;;;;2.57;1.80;;;;;;;;;;10113956;29;20512;-79
2022/09/03 11:34:46;;;;;;;2.15;1.95;;;;;;;;;;10093150;29;20462;-80
2022/09/03 11:39:58;;;;;;;2.60;1.95;;;;;;;;;;10107524;29;20437;-79
2022/09/03 11:45:13;;;;;;;4.50;2.10;;;;;;;;;;10117460;29;20528;-79
2022/09/03 11:50:23;;;;;;;2.20;2.00;;;;;;;;;;10117346;29;21046;-79
2022/09/03 11:55:29;;;;;;;2.40;2.10;;;;;;;;;;10117321;29;20894;-79
2022/09/03 12:00:31;;;;;;;3.13;2.08;;;;;;;;;;10105092;29;20844;-79
2022/09/03 12:05:42;;;;;;;2.47;2.20;;;;;;;;;;10116987;29;20423;-79
2022/09/03 12:10:53;;;;;;;2.10;1.90;;;;;;;;;;10116132;29;21189;-79
2022/09/03 12:16:21;;;;;;;2.57;1.80;;;;;;;;;;10115006;29;20486;-79
2022/09/03 12:21:23;;;;;;;2.10;1.80;;;;;;;;;;10115704;29;20879;-80
2022/09/03 12:26:27;;;;;;;2.70;2.03;;;;;;;;;;10114849;29;20849;-79
2022/09/03 12:31:30;;;;;;;2.65;1.70;;;;;;;;;;10113883;29;20415;-80
2022/09/03 12:36:38;;;;;;;2.60;1.60;;;;;;;;;;10090374;29;20718;-81
2022/09/03 12:41:55;;;;;;;3.17;1.77;;;;;;;;;;10078216;29;20848;-80
2022/09/03 12:47:02;;;;;;;2.13;1.60;;;;;;;;;;10077948;29;20908;-80
2022/09/03 12:52:11;;;;;;;1.70;1.60;;;;;;;;;;10101307;29;20783;-80
2022/09/03 12:57:19;;;;;;;4.17;1.90;;;;;;;;;;10115120;29;20531;-79
2022/09/03 13:02:26;;;;;;;1.85;1.70;;;;;;;;;;10114827;29;20440;-79
2022/09/03 13:07:32;;;;;;;1.80;1.60;;;;;;;;;;10114089;29;20413;-80
2022/09/03 13:12:43;;;;;;;1.98;1.60;;;;;;;;;;10112690;29;20413;-79
2022/09/03 13:18:11;;;;;;;3.20;1.50;;;;;;;;;;10113345;29;20570;-79
2022/09/03 13:23:29;;;;;;;1.73;1.63;;;;;;;;;;10111510;29;20978;-79
2022/09/03 13:28:43;;;;;;;2.60;1.70;;;;;;;;;;10110315;29;20445;-79
2022/09/03 13:33:51;;;;;;;1.90;1.70;;;;;;;;;;10116559;29;20497;-79
2022/09/03 13:38:58;;;;;;;2.77;1.87;;;;;;;;;;10121195;29;20901;-79
2022/09/03 13:44:06;;;;;;;3.00;2.00;;;;;;;;;;10120109;29;20515;-79
2022/09/03 13:54:46;;;;;;;2.85;1.90;;;;;;;;;;10112553;29;21408;-79
2022/09/03 13:59:52;;;;;;;3.20;1.80;;;;;;;;;;10118201;29;20536;-81
2022/09/03 14:05:07;;;;;;;2.13;2.03;;;;;;;;;;10117625;29;20424;-80
2022/09/03 14:10:22;;;;;;;1.92;1.83;;;;;;;;;;10115031;29;20413;-80
2022/09/03 14:15:30;;;;;;;3.57;2.20;;;;;;;;;;10106543;29;20724;-81
2022/09/03 14:20:40;;;;;;;2.15;1.95;;;;;;;;;;10113286;29;20433;-81
2022/09/03 14:25:52;;;;;;;3.33;2.20;;;;;;;;;;10112644;29;20435;-81
2022/09/03 14:31:07;;;;;;;3.00;2.07;;;;;;;;;;10113497;29;20417;-81
2022/09/03 14:36:16;;;;;;;3.00;2.00;;;;;;;;;;10119855;29;20898;-80
2022/09/03 14:41:50;;;;;;;3.67;1.95;;;;;;;;;;10107668;29;20523;-79
2022/09/03 14:47:08;;;;;;;3.28;1.80;;;;;;;;;;10097638;29;20952;-80
2022/09/03 14:52:29;;;;;;;2.38;1.80;;;;;;;;;;10118227;29;20410;-80
2022/09/03 14:57:45;;;;;;;2.75;2.17;;;;;;;;;;10116102;29;20426;-79
2022/09/03 15:03:24;;;;;;;2.75;1.80;;;;;;;;;;10114533;29;21011;-79
2022/09/03 15:08:47;;;;;;;4.70;1.97;;;;;;;;;;10113019;29;20424;-80
2022/09/03 15:13:54;;;;;;;3.28;2.03;;;;;;;;;;10104897;29;20428;-79
2022/09/03 15:19:10;;;;;;;3.15;1.95;;;;;;;;;;10112483;29;20496;-80
2022/09/03 15:24:21;;;;;;;2.90;2.05;;;;;;;;;;10110939;29;20436;-79
2022/09/03 15:29:37;;;;;;;3.25;2.05;;;;;;;;;;10110532;29;20500;-80
2022/09/03 15:34:56;;;;;;;5.85;2.20;;;;;;;;;;10117145;29;20417;-78
2022/09/03 15:40:03;;;;;;;4.07;2.00;;;;;;;;;;10116812;29;20433;-80
2022/09/03 15:45:16;;;;;;;3.03;1.63;;;;;;;;;;10116072;29;21121;-80
2022/09/03 15:50:29;;;;;;;2.38;1.65;;;;;;;;;;10115567;29;20853;-79
2022/09/03 15:55:35;;;;;;;2.50;1.60;;;;;;;;;;10115083;29;20420;-81
2022/09/03 16:00:51;;;;;;;4.57;1.83;;;;;;;;;;10113770;29;20432;-79
2022/09/03 16:06:01;;;;;;;1.70;1.60;;;;;;;;;;10102420;29;20429;-79
2022/09/03 16:11:08;;;;;;;2.75;1.90;;;;;;;;;;10086284;29;20425;-80
2022/09/03 16:16:16;;;;;;;1.80;1.70;;;;;;;;;;10079078;29;20418;-78
2022/09/03 16:21:27;;;;;;;1.90;1.60;;;;;;;;;;10112865;29;20518;-79
2022/09/03 16:26:34;;;;;;;3.20;1.70;;;;;;;;;;10116335;29;20419;-79
2022/09/03 16:31:51;;;;;;;2.58;1.70;;;;;;;;;;10100909;29;20415;-78
2022/09/03 16:37:03;;;;;;;2.60;1.90;;;;;;;;;;10107866;29;20790;-79
2022/09/03 16:42:14;;;;;;;2.53;1.80;;;;;;;;;;10115324;29;20444;-80
2022/09/03 16:47:25;;;;;;;3.22;2.00;;;;;;;;;;10114715;29;20421;-80
2022/09/03 16:52:38;;;;;;;2.15;1.88;;;;;;;;;;10102476;29;20802;-79
2022/09/03 16:57:56;;;;;;;2.63;1.80;;;;;;;;;;10114988;29;20499;-82
2022/09/03 17:03:45;;;;;;;2.95;1.90;;;;;;;;;;10115576;29;20477;-80
2022/09/03 17:08:58;;;;;;;2.23;1.80;;;;;;;;;;10087599;29;20822;-79
2022/09/03 17:14:28;;;;;;;2.10;1.90;;;;;;;;;;10120218;29;20444;-79
2022/09/03 17:19:35;;;;;;;1.75;1.65;;;;;;;;;;10118930;29;20921;-79
2022/09/03 17:24:43;;;;;;;2.05;1.85;;;;;;;;;;10117630;29;20435;-80
2022/09/03 17:30:00;;;;;;;2.80;2.00;;;;;;;;;;10117112;29;21027;-80
2022/09/03 17:35:10;;;;;;;3.75;1.80;;;;;;;;;;10122377;29;20897;-79
2022/09/03 17:40:28;;;;;;;3.20;2.00;;;;;;;;;;10115267;29;20414;-79
2022/09/03 17:45:41;;;;;;;2.27;1.90;;;;;;;;;;10117259;29;20952;-80
2022/09/03 17:50:50;;;;;;;3.25;2.00;;;;;;;;;;10118918;29;20757;-79
2022/09/03 17:55:57;;;;;;;2.20;2.00;;;;;;;;;;10106796;29;20464;-79
2022/09/03 18:01:06;;;;;;;2.92;2.00;;;;;;;;;;10117026;29;20439;-80
2022/09/03 18:06:18;;;;;;;2.70;1.92;;;;;;;;;;10116499;29;20520;-79
2022/09/03 18:11:30;;;;;;;2.00;1.90;;;;;;;;;;10116123;29;20497;-80
2022/09/03 18:16:33;;;;;;;2.65;1.85;;;;;;;;;;10115262;29;20507;-79
2022/09/03 20:10:37;;;;;;;4.40;2.60;;;;;;;;;;10102577;29;20401;-80
2022/09/03 20:15:48;;;;;;;4.43;3.80;;;;;;;;;;10109358;29;20929;-79
2022/09/03 20:21:02;;;;;;;5.65;4.07;;;;;;;;;;10108595;29;20832;-80
2022/09/03 20:26:21;;;;;;;4.43;4.03;;;;;;;;;;10107453;29;20508;-81
2022/09/03 20:31:27;;;;;;;4.32;3.78;;;;;;;;;;10099182;29;20494;-80
2022/09/03 20:36:38;;;;;;;5.17;4.67;;;;;;;;;;10115165;29;20466;-79
2022/09/03 20:41:49;;;;;;;5.03;4.53;;;;;;;;;;10114607;29;20443;-81
2022/09/03 20:47:04;;;;;;;5.00;4.50;;;;;;;;;;10114380;29;20843;-80
2022/09/03 20:52:12;;;;;;;5.00;4.50;;;;;;;;;;10115432;29;20420;-80
2022/09/03 20:57:36;;;;;;;4.60;4.10;;;;;;;;;;10113940;29;20496;-80
2022/09/03 21:03:15;;;;;;;4.18;3.78;;;;;;;;;;10115168;29;20868;-78
2022/09/03 21:08:42;;;;;;;5.25;4.00;;;;;;;;;;10080725;29;20425;-79
2022/09/03 21:13:52;;;;;;;5.10;4.13;;;;;;;;;;10113325;29;20426;-79
2022/09/03 21:19:01;;;;;;;6.03;4.93;;;;;;;;;;10112232;29;20421;-79
2022/09/03 21:24:08;;;;;;;8.17;5.90;;;;;;;;;;10111417;29;20540;-79
2022/09/03 21:29:19;;;;;;;6.80;5.70;;;;;;;;;;10110110;29;20441;-80
2022/09/03 21:34:29;;;;;;;6.60;5.28;;;;;;;;;;10089801;29;20448;-79
2022/09/03 21:39:41;;;;;;;6.20;5.60;;;;;;;;;;10113275;29;20409;-80
2022/09/03 21:44:56;;;;;;;5.72;5.18;;;;;;;;;;10113356;29;20463;-80
2022/09/03 21:50:05;;;;;;;6.20;5.60;;;;;;;;;;10112703;29;20427;-80
2022/09/03 21:55:20;;;;;;;5.85;5.30;;;;;;;;;;10114568;29;20425;-81
2022/09/03 22:00:31;;;;;;;7.25;5.57;;;;;;;;;;10118777;29;20906;-79
2022/09/03 22:05:44;;;;;;;6.88;5.15;;;;;;;;;;10106446;29;20518;-79
2022/09/03 22:11:04;;;;;;;6.30;5.70;;;;;;;;;;10116546;29;20500;-78
2022/09/03 22:16:13;;;;;;;6.47;5.87;;;;;;;;;;10115457;29;20478;-79
2022/09/03 22:21:22;;;;;;;6.30;5.70;;;;;;;;;;10115412;29;20540;-78
2022/09/03 22:26:36;;;;;;;6.65;5.95;;;;;;;;;;10114946;29;20958;-79
2022/09/03 22:31:52;;;;;;;5.57;5.07;;;;;;;;;;10115184;29;20855;-79
2022/09/03 22:36:59;;;;;;;5.53;4.93;;;;;;;;;;10112264;29;20950;-79
2022/09/03 22:42:13;;;;;;;5.40;4.90;;;;;;;;;;10119548;29;20433;-78
2022/09/03 22:47:23;;;;;;;5.22;4.82;;;;;;;;;;10119064;29;20417;-80
2022/09/03 22:52:32;;;;;;;4.90;4.50;;;;;;;;;;10105167;29;20496;-79
2022/09/03 22:57:41;;;;;;;5.72;4.60;;;;;;;;;;10116841;29;20414;-79
2022/09/03 23:02:45;;;;;;;6.03;4.60;;;;;;;;;;10116115;29;20997;-79
2022/09/03 23:07:54;;;;;;;5.43;4.40;;;;;;;;;;10114873;29;20443;-80
2022/09/03 23:13:06;;;;;;;5.07;4.57;;;;;;;;;;10114506;29;20493;-79
2022/09/03 23:18:14;;;;;;;5.20;4.70;;;;;;;;;;10114240;29;20497;-80
2022/09/03 23:23:20;;;;;;;6.05;5.45;;;;;;;;;;10111261;29;20441;-79
2022/09/03 23:28:29;;;;;;;6.17;5.20;;;;;;;;;;10110703;29;20422;-80
2022/09/03 23:33:30;;;;;;;6.38;5.70;;;;;;;;;;10101716;29;20498;-80
2022/09/03 23:38:46;;;;;;;5.45;4.95;;;;;;;;;;10081553;29;20415;-80
2022/09/03 23:44:03;;;;;;;5.75;5.22;;;;;;;;;;10080947;29;20530;-80
2022/09/03 23:49:25;;;;;;;8.05;7.20;;;;;;;;;;10092209;29;20496;-78
2022/09/03 23:54:37;;;;;;;10.05;8.52;;;;;;;;;;10107578;29;20429;-80
2022/09/03 23:59:59;;;;;;;9.93;8.93;;;;;;;;;;10116680;29;20425;-79
